Time;durP1;ratioP1;P1;durP2;ratioP2;P2;SDS_P1;SDS_P2;PMS_P1;PMS_P2;Temp;Humidity;BMP_temperature;BMP_pressure;BME280_temperature;BME280_humidity;BME280_pressure;Samples;Min_cycle;Max_cycle;Signal;HPM_P1;HPM_P2
2022/10/30 00:01:52;;;;;;;18.92;10.15;;;15.00;99.90;;;;;;5051153;28;20451;-74
2022/10/30 00:04:18;;;;;;;22.83;9.68;;;15.00;99.90;;;;;;5035573;28;20041;-74
2022/10/30 00:06:43;;;;;;;15.95;8.80;;;15.00;99.90;;;;;;5034916;28;20419;-74
2022/10/30 00:09:09;;;;;;;17.13;9.15;;;15.00;99.90;;;;;;5069151;28;20037;-74
2022/10/30 00:11:35;;;;;;;16.23;9.48;;;15.00;99.90;;;;;;5051610;28;20041;-74
2022/10/30 00:14:00;;;;;;;17.30;9.38;;;15.00;99.90;;;;;;5035456;28;20124;-75
2022/10/30 00:16:26;;;;;;;19.70;9.48;;;15.00;99.90;;;;;;5067671;28;20458;-74
2022/10/30 00:18:52;;;;;;;16.40;9.85;;;14.90;99.90;;;;;;5028133;28;20084;-75
2022/10/30 00:21:17;;;;;;;15.63;8.50;;;14.90;99.90;;;;;;5032391;28;20047;-74
2022/10/30 00:23:47;;;;;;;15.88;9.43;;;14.90;99.90;;;;;;5051142;28;20041;-74
2022/10/30 00:26:14;;;;;;;14.63;9.05;;;14.80;99.90;;;;;;5050836;28;20087;-74
2022/10/30 00:28:39;;;;;;;16.95;9.38;;;14.70;99.90;;;;;;5052091;28;20052;-75
2022/10/30 00:31:05;;;;;;;17.20;8.70;;;14.80;99.90;;;;;;5035349;28;20033;-74
2022/10/30 00:33:31;;;;;;;14.05;8.35;;;14.70;99.90;;;;;;5051888;28;20048;-74
2022/10/30 00:35:57;;;;;;;16.08;9.27;;;14.70;99.90;;;;;;5051219;28;20490;-74
2022/10/30 00:38:23;;;;;;;16.25;9.30;;;14.70;99.90;;;;;;5051770;28;20037;-75
2022/10/30 00:40:48;;;;;;;17.17;9.10;;;14.70;99.90;;;;;;5052031;28;20459;-74
2022/10/30 00:43:46;;;;;;;16.27;8.90;;;14.60;99.90;;;;;;5067550;28;20136;-74
2022/10/30 00:46:26;;;;;;;17.23;9.15;;;14.60;99.90;;;;;;5050712;28;20037;-74
2022/10/30 00:49:09;;;;;;;16.50;9.13;;;14.60;99.90;;;;;;5068403;28;20040;-74
2022/10/30 00:51:38;;;;;;;15.27;8.93;;;14.60;99.90;;;;;;5036889;28;20048;-74
2022/10/30 00:54:05;;;;;;;17.17;9.02;;;14.60;99.90;;;;;;5035009;28;20559;-74
2022/10/30 00:56:31;;;;;;;16.63;8.65;;;14.50;99.90;;;;;;5034450;28;20044;-74
2022/10/30 00:59:00;;;;;;;17.17;8.82;;;14.50;99.90;;;;;;5050915;28;20041;-74
2022/10/30 01:01:28;;;;;;;14.35;8.32;;;14.50;99.90;;;;;;5051634;28;20049;-74
2022/10/30 01:03:56;;;;;;;16.05;9.68;;;14.50;99.90;;;;;;5051414;28;20052;-74
2022/10/30 01:06:23;;;;;;;15.55;8.75;;;14.40;99.90;;;;;;5043233;28;20044;-74
2022/10/30 01:08:50;;;;;;;15.35;8.75;;;14.40;99.90;;;;;;5065926;28;20489;-74
2022/10/30 01:11:16;;;;;;;17.73;8.77;;;14.40;99.90;;;;;;5068216;28;20052;-74
2022/10/30 01:13:45;;;;;;;15.35;8.23;;;14.40;99.90;;;;;;5068169;28;20544;-74
2022/10/30 01:16:38;;;;;;;18.35;8.73;;;14.30;99.90;;;;;;5051039;28;20077;-74
2022/10/30 01:19:26;;;;;;;18.35;9.32;;;14.30;99.90;;;;;;5049869;28;20095;-74
2022/10/30 01:22:18;;;;;;;14.90;8.00;;;14.30;99.90;;;;;;5050579;28;20119;-74
2022/10/30 01:25:04;;;;;;;17.92;8.68;;;14.30;99.90;;;;;;5051092;28;20056;-75
2022/10/30 01:28:03;;;;;;;16.88;8.90;;;14.30;99.90;;;;;;5030949;28;20049;-74
2022/10/30 01:30:35;;;;;;;16.92;8.75;;;14.30;99.90;;;;;;5049198;28;20126;-74
2022/10/30 01:33:29;;;;;;;15.65;8.88;;;14.30;99.90;;;;;;5068029;28;20045;-74
2022/10/30 01:36:12;;;;;;;18.58;9.55;;;14.30;99.90;;;;;;5053256;28;20041;-74
2022/10/30 01:39:01;;;;;;;17.35;9.60;;;14.30;99.90;;;;;;5071649;28;20056;-74
2022/10/30 01:41:27;;;;;;;13.93;8.35;;;14.30;99.90;;;;;;5071583;28;20044;-74
2022/10/30 01:44:01;;;;;;;17.45;8.57;;;14.20;99.90;;;;;;5062283;28;20088;-74
2022/10/30 01:46:54;;;;;;;17.45;8.63;;;14.30;99.90;;;;;;5067255;28;20052;-74
2022/10/30 01:49:38;;;;;;;16.23;8.10;;;14.30;99.90;;;;;;5044969;28;20436;-75
2022/10/30 01:52:15;;;;;;;16.63;7.97;;;14.30;99.90;;;;;;5038861;28;20040;-75
2022/10/30 01:54:49;;;;;;;20.02;8.80;;;14.30;99.90;;;;;;5059396;28;20041;-74
2022/10/30 01:57:33;;;;;;;16.23;8.60;;;14.30;99.90;;;;;;5064148;28;20037;-74
2022/10/30 02:00:04;;;;;;;17.13;8.45;;;14.30;99.90;;;;;;5034787;28;20041;-74
2022/10/30 02:02:31;;;;;;;17.40;7.90;;;14.30;99.90;;;;;;5040717;28;20492;-74
2022/10/30 02:04:57;;;;;;;13.02;7.47;;;14.20;99.90;;;;;;5037853;28;20682;-74
2022/10/30 02:07:23;;;;;;;15.20;8.10;;;14.20;99.90;;;;;;5035791;28;20036;-74
2022/10/30 02:09:51;;;;;;;15.30;8.60;;;14.20;99.90;;;;;;5051603;28;20048;-74
2022/10/30 02:12:17;;;;;;;14.90;7.95;;;14.20;99.90;;;;;;5053645;28;20041;-74
2022/10/30 02:14:48;;;;;;;14.43;7.78;;;14.20;99.90;;;;;;5044520;28;20098;-74
2022/10/30 02:17:14;;;;;;;17.70;8.10;;;14.20;99.90;;;;;;5049740;28;20048;-74
2022/10/30 02:19:40;;;;;;;14.82;8.88;;;14.20;99.90;;;;;;5036956;28;20048;-74
2022/10/30 02:22:06;;;;;;;17.00;8.60;;;14.20;99.90;;;;;;5054001;28;20037;-74
2022/10/30 02:24:32;;;;;;;17.25;9.32;;;14.20;99.90;;;;;;5035781;28;20124;-74
2022/10/30 02:26:57;;;;;;;19.52;8.63;;;14.20;99.90;;;;;;5054260;28;20040;-74
2022/10/30 02:29:23;;;;;;;18.45;8.90;;;14.30;99.90;;;;;;5069627;28;20104;-74
2022/10/30 02:31:49;;;;;;;16.27;8.43;;;14.30;99.90;;;;;;5052510;28;20045;-74
2022/10/30 02:34:15;;;;;;;16.23;8.85;;;14.30;99.90;;;;;;5053794;28;20039;-74
2022/10/30 02:36:40;;;;;;;19.65;9.38;;;14.20;99.90;;;;;;5043512;28;20122;-74
2022/10/30 02:39:06;;;;;;;16.30;8.73;;;14.20;99.90;;;;;;5033870;28;20129;-74
2022/10/30 02:41:32;;;;;;;14.15;8.32;;;14.20;99.90;;;;;;5041984;28;20044;-74
2022/10/30 02:43:58;;;;;;;17.17;8.02;;;14.20;99.90;;;;;;5054044;28;20134;-74
2022/10/30 02:46:23;;;;;;;15.10;8.13;;;14.10;99.90;;;;;;5048541;28;20094;-74
2022/10/30 02:48:50;;;;;;;16.85;9.07;;;14.10;99.90;;;;;;5053302;28;20044;-74
2022/10/30 02:51:15;;;;;;;14.68;8.82;;;14.10;99.90;;;;;;5052471;28;20029;-74
2022/10/30 02:53:41;;;;;;;14.73;8.07;;;14.10;99.90;;;;;;5052367;28;20473;-74
2022/10/30 02:56:09;;;;;;;17.17;8.90;;;14.10;99.90;;;;;;5051558;28;20053;-74
2022/10/30 02:58:35;;;;;;;15.43;8.27;;;14.00;99.90;;;;;;5053474;28;20128;-74
2022/10/30 03:01:06;;;;;;;14.73;8.30;;;14.00;99.90;;;;;;5052586;28;20048;-74
2022/10/30 03:03:31;;;;;;;18.60;8.32;;;14.00;99.90;;;;;;5037048;28;20079;-74
2022/10/30 03:06:00;;;;;;;16.60;8.13;;;14.00;99.90;;;;;;5046922;28;20041;-74
2022/10/30 03:08:25;;;;;;;15.15;8.38;;;14.00;99.90;;;;;;5033610;28;20472;-74
2022/10/30 03:10:51;;;;;;;15.60;7.93;;;14.00;99.90;;;;;;5049074;28;20116;-74
2022/10/30 03:13:16;;;;;;;17.60;8.27;;;13.90;99.90;;;;;;5053084;28;20033;-74
2022/10/30 03:15:42;;;;;;;16.90;8.93;;;13.80;99.90;;;;;;5052282;28;20040;-74
2022/10/30 03:18:07;;;;;;;16.02;8.35;;;13.80;99.90;;;;;;5035651;28;20041;-74
2022/10/30 03:20:33;;;;;;;14.82;8.48;;;13.80;99.90;;;;;;5048660;28;20045;-74
2022/10/30 03:23:00;;;;;;;17.08;8.63;;;13.70;99.90;;;;;;5051907;28;20124;-74
2022/10/30 03:25:25;;;;;;;13.45;7.50;;;13.80;99.90;;;;;;5051794;28;20044;-74
2022/10/30 03:27:51;;;;;;;18.90;8.65;;;13.80;99.90;;;;;;5048682;28;20044;-74
2022/10/30 03:30:17;;;;;;;15.00;8.50;;;13.70;99.90;;;;;;5046208;28;20041;-74
2022/10/30 03:32:42;;;;;;;15.25;8.60;;;13.70;99.90;;;;;;5051455;28;20040;-74
2022/10/30 03:35:08;;;;;;;15.88;7.93;;;13.70;99.90;;;;;;5051395;28;20124;-74
2022/10/30 03:37:33;;;;;;;16.45;8.45;;;13.70;99.90;;;;;;5050074;28;20120;-74
2022/10/30 03:39:59;;;;;;;15.23;8.77;;;13.60;99.90;;;;;;5051742;28;20045;-74
2022/10/30 03:42:24;;;;;;;18.00;8.82;;;13.70;99.90;;;;;;5051247;28;20584;-74
2022/10/30 03:44:50;;;;;;;13.07;7.97;;;13.70;99.90;;;;;;5051938;28;20408;-74
2022/10/30 03:47:15;;;;;;;16.95;9.23;;;13.70;99.90;;;;;;5047095;28;20037;-74
2022/10/30 03:49:41;;;;;;;14.93;8.98;;;13.70;99.90;;;;;;5067179;28;20064;-74
2022/10/30 03:52:07;;;;;;;14.32;9.38;;;13.70;99.90;;;;;;5057167;28;20033;-74
2022/10/30 03:54:32;;;;;;;18.20;9.40;;;13.70;99.90;;;;;;5046004;28;20473;-74
2022/10/30 03:56:58;;;;;;;20.98;9.05;;;13.80;99.90;;;;;;5048511;28;20872;-74
2022/10/30 03:59:23;;;;;;;18.13;9.18;;;13.80;99.90;;;;;;5032278;28;20397;-74
2022/10/30 04:01:49;;;;;;;15.20;9.55;;;13.80;99.90;;;;;;5051231;28;20037;-74
2022/10/30 04:04:15;;;;;;;17.80;9.40;;;13.90;99.90;;;;;;5050990;28;20033;-74
2022/10/30 04:06:40;;;;;;;16.80;9.60;;;13.80;99.90;;;;;;5050538;28;20485;-74
2022/10/30 04:09:06;;;;;;;20.25;9.10;;;13.80;99.90;;;;;;5066124;28;20441;-74
2022/10/30 04:11:31;;;;;;;20.05;9.68;;;13.80;99.90;;;;;;5051473;28;20650;-74
2022/10/30 04:13:57;;;;;;;18.25;9.60;;;13.80;99.90;;;;;;5050558;28;20044;-74
2022/10/30 04:16:22;;;;;;;16.58;9.45;;;13.80;99.90;;;;;;5067833;28;20037;-74
2022/10/30 04:18:48;;;;;;;18.45;9.30;;;13.90;99.90;;;;;;5050079;28;20176;-74
2022/10/30 04:21:13;;;;;;;18.08;9.43;;;13.90;99.90;;;;;;5049159;28;20025;-74
2022/10/30 04:23:39;;;;;;;18.55;10.18;;;13.90;99.90;;;;;;5032398;28;20513;-74
2022/10/30 04:26:04;;;;;;;15.40;9.50;;;13.90;99.90;;;;;;5035142;28;20524;-76
2022/10/30 04:28:30;;;;;;;15.55;8.50;;;13.80;99.90;;;;;;5038488;28;20420;-74
2022/10/30 04:30:56;;;;;;;20.02;10.38;;;13.80;99.90;;;;;;5033012;28;20033;-74
2022/10/30 04:33:21;;;;;;;15.02;9.57;;;13.80;99.90;;;;;;5051244;28;20049;-74
2022/10/30 04:35:47;;;;;;;16.05;9.45;;;13.70;99.90;;;;;;5047194;28;20045;-74
2022/10/30 04:38:14;;;;;;;16.55;9.10;;;13.70;99.90;;;;;;5050611;28;20047;-74
2022/10/30 04:40:42;;;;;;;15.15;8.85;;;13.70;99.90;;;;;;5049308;28;20497;-74
2022/10/30 04:43:09;;;;;;;15.48;9.32;;;13.70;99.90;;;;;;5034583;28;20048;-74
2022/10/30 04:45:35;;;;;;;18.30;9.60;;;13.70;99.90;;;;;;5066495;28;20045;-74
2022/10/30 04:48:14;;;;;;;17.15;9.60;;;13.70;99.90;;;;;;5034011;28;20041;-74
2022/10/30 04:50:40;;;;;;;20.85;9.93;;;13.70;99.90;;;;;;5050729;28;20045;-74
2022/10/30 04:53:14;;;;;;;15.48;9.40;;;13.70;99.90;;;;;;5050878;28;20041;-74
2022/10/30 04:55:40;;;;;;;17.63;9.15;;;13.60;99.90;;;;;;5033296;28;20037;-74
2022/10/30 04:58:07;;;;;;;16.33;9.88;;;13.60;99.90;;;;;;5050912;28;20044;-74
2022/10/30 05:00:32;;;;;;;19.60;9.68;;;13.50;99.90;;;;;;5049377;28;20393;-74
2022/10/30 05:02:59;;;;;;;16.23;9.07;;;13.50;99.90;;;;;;5050853;28;20052;-74
2022/10/30 05:05:25;;;;;;;18.48;10.30;;;13.60;99.90;;;;;;5064909;28;20041;-74
2022/10/30 05:07:51;;;;;;;18.13;10.48;;;13.50;99.90;;;;;;5050569;28;20048;-74
2022/10/30 05:10:17;;;;;;;19.75;10.43;;;13.50;99.90;;;;;;5051528;28;20412;-74
2022/10/30 05:12:44;;;;;;;18.40;10.10;;;13.50;99.90;;;;;;5035475;28;20086;-74
2022/10/30 05:15:10;;;;;;;21.90;9.90;;;13.50;99.90;;;;;;5054402;28;20131;-74
2022/10/30 05:17:36;;;;;;;17.27;9.30;;;13.50;99.90;;;;;;5037082;28;20045;-74
2022/10/30 05:20:01;;;;;;;17.13;9.63;;;13.50;99.90;;;;;;5052818;28;20048;-74
2022/10/30 05:22:27;;;;;;;18.40;9.85;;;13.40;99.90;;;;;;5053142;28;20075;-74
2022/10/30 05:24:52;;;;;;;17.05;10.52;;;13.40;99.90;;;;;;5053602;28;20045;-74
2022/10/30 05:27:18;;;;;;;17.08;9.98;;;13.30;99.90;;;;;;5049632;28;20081;-74
2022/10/30 05:29:43;;;;;;;18.17;10.05;;;13.40;99.90;;;;;;5053790;28;20033;-74
2022/10/30 05:32:09;;;;;;;16.00;9.32;;;13.30;99.90;;;;;;5034809;28;20090;-74
2022/10/30 05:34:34;;;;;;;19.67;9.55;;;13.30;99.90;;;;;;5055117;28;20463;-74
2022/10/30 05:37:00;;;;;;;18.13;10.00;;;13.40;99.90;;;;;;5053522;28;20033;-74
2022/10/30 05:39:26;;;;;;;21.10;9.98;;;13.40;99.90;;;;;;5053720;28;20095;-74
2022/10/30 05:41:52;;;;;;;25.40;14.75;;;13.40;99.90;;;;;;5038736;28;20136;-74
2022/10/30 05:44:17;;;;;;;31.33;22.13;;;13.40;99.90;;;;;;5053529;28;20116;-74
2022/10/30 05:46:43;;;;;;;26.60;18.88;;;13.40;99.90;;;;;;5051633;28;20048;-74
2022/10/30 05:49:09;;;;;;;17.55;10.52;;;13.30;99.90;;;;;;5037741;28;20033;-74
2022/10/30 05:51:34;;;;;;;16.85;12.25;;;13.20;99.90;;;;;;5052473;28;20076;-74
2022/10/30 05:54:00;;;;;;;15.95;10.85;;;13.10;99.90;;;;;;5036759;28;20127;-74
2022/10/30 05:56:25;;;;;;;20.15;11.32;;;13.10;99.90;;;;;;5052404;28;20044;-74
2022/10/30 05:58:51;;;;;;;16.92;10.60;;;13.10;99.90;;;;;;5036790;28;20041;-74
2022/10/30 06:01:17;;;;;;;17.33;10.10;;;13.10;99.90;;;;;;5036118;28;20041;-74
2022/10/30 06:03:43;;;;;;;17.63;9.70;;;13.00;99.90;;;;;;5051112;28;20135;-74
2022/10/30 06:06:08;;;;;;;16.75;10.50;;;13.00;99.90;;;;;;5053019;28;20037;-74
2022/10/30 06:08:34;;;;;;;20.73;11.38;;;13.10;99.90;;;;;;5035333;28;20033;-74
2022/10/30 06:10:59;;;;;;;16.42;10.07;;;13.10;99.90;;;;;;5037128;28;20029;-73
2022/10/30 06:13:25;;;;;;;17.35;10.35;;;13.00;99.90;;;;;;5053277;28;20116;-73
2022/10/30 06:15:54;;;;;;;17.63;10.43;;;13.00;99.90;;;;;;5052401;28;20570;-73
2022/10/30 06:18:19;;;;;;;13.98;9.25;;;13.00;99.90;;;;;;5052960;28;20440;-73
2022/10/30 06:20:45;;;;;;;14.70;10.13;;;12.90;99.90;;;;;;5053779;28;20041;-83
2022/10/30 06:23:10;;;;;;;15.18;9.48;;;12.90;99.90;;;;;;5044272;28;20042;-74
2022/10/30 06:25:36;;;;;;;15.90;8.82;;;13.00;99.90;;;;;;5047440;28;20044;-74
2022/10/30 06:28:02;;;;;;;17.25;8.82;;;12.90;99.90;;;;;;5036223;28;20029;-74
2022/10/30 06:30:29;;;;;;;15.88;9.13;;;12.90;99.90;;;;;;5035970;28;20169;-74
2022/10/30 06:33:03;;;;;;;17.08;8.77;;;12.90;99.90;;;;;;5051642;28;20037;-74
2022/10/30 06:35:29;;;;;;;18.42;9.93;;;12.80;99.90;;;;;;5053282;28;20049;-74
2022/10/30 06:37:55;;;;;;;17.25;9.15;;;12.90;99.90;;;;;;5058679;28;20094;-74
2022/10/30 06:40:22;;;;;;;16.83;9.02;;;12.90;99.90;;;;;;5051941;28;20497;-74
2022/10/30 06:42:51;;;;;;;14.70;9.35;;;12.80;99.90;;;;;;5032694;28;20040;-74
2022/10/30 06:45:18;;;;;;;14.95;9.15;;;12.80;99.90;;;;;;5053010;28;20033;-74
2022/10/30 06:47:44;;;;;;;21.02;9.75;;;12.80;99.90;;;;;;5052372;28;20041;-74
2022/10/30 06:50:12;;;;;;;15.40;9.50;;;12.70;99.90;;;;;;5068385;28;20029;-74
2022/10/30 06:52:38;;;;;;;17.08;9.77;;;12.70;99.90;;;;;;5070170;28;20041;-74
2022/10/30 06:55:04;;;;;;;17.65;9.32;;;12.70;99.90;;;;;;5068293;28;20036;-74
2022/10/30 06:57:30;;;;;;;19.73;10.68;;;12.70;99.90;;;;;;5052991;28;20166;-74
2022/10/30 06:59:56;;;;;;;15.50;9.35;;;12.80;99.90;;;;;;5051528;28;20124;-74
2022/10/30 07:02:21;;;;;;;17.65;9.98;;;12.80;99.90;;;;;;5050993;28;20060;-74
2022/10/30 07:04:47;;;;;;;15.98;9.65;;;12.90;99.90;;;;;;5065422;28;20098;-74
2022/10/30 07:07:13;;;;;;;19.42;10.20;;;12.80;99.90;;;;;;5068538;28;20047;-74
2022/10/30 07:09:39;;;;;;;15.55;9.65;;;12.80;99.90;;;;;;5052366;28;20033;-74
2022/10/30 07:12:06;;;;;;;15.18;9.30;;;12.80;99.90;;;;;;5035502;28;20496;-74
2022/10/30 07:14:31;;;;;;;18.58;9.77;;;12.80;99.90;;;;;;5051144;28;20036;-74
2022/10/30 07:16:57;;;;;;;18.70;9.20;;;12.80;99.90;;;;;;5066880;28;20040;-74
2022/10/30 07:19:23;;;;;;;18.10;9.82;;;12.80;99.90;;;;;;5052379;28;20072;-74
2022/10/30 07:21:48;;;;;;;15.02;9.45;;;12.80;99.90;;;;;;5049008;28;20037;-74
2022/10/30 07:24:14;;;;;;;15.13;9.90;;;12.80;99.90;;;;;;5068296;28;20461;-74
2022/10/30 07:26:39;;;;;;;17.52;10.10;;;12.80;99.90;;;;;;5033937;28;20091;-75
2022/10/30 07:29:05;;;;;;;16.73;9.75;;;12.90;99.90;;;;;;5052399;28;20041;-74
2022/10/30 07:31:31;;;;;;;16.10;9.60;;;12.90;99.90;;;;;;5051217;28;20111;-74
2022/10/30 07:33:56;;;;;;;17.40;10.55;;;12.90;99.90;;;;;;5034406;28;20485;-74
2022/10/30 07:36:22;;;;;;;16.77;10.73;;;13.00;99.90;;;;;;5050600;28;20041;-74
2022/10/30 07:38:49;;;;;;;17.08;10.55;;;13.10;99.90;;;;;;5034835;28;20044;-74
2022/10/30 07:41:16;;;;;;;17.65;10.77;;;13.20;99.90;;;;;;5067153;28;20033;-74
2022/10/30 07:43:42;;;;;;;19.77;11.07;;;13.20;99.90;;;;;;5062472;28;20049;-70
2022/10/30 07:46:08;;;;;;;20.25;11.65;;;13.20;99.90;;;;;;5046427;28;20041;-70
2022/10/30 07:48:33;;;;;;;20.83;10.75;;;13.20;99.90;;;;;;5050427;28;20115;-75
2022/10/30 07:50:59;;;;;;;16.27;10.68;;;13.20;99.90;;;;;;5041519;28;20467;-74
2022/10/30 07:53:24;;;;;;;19.25;11.90;;;13.30;99.90;;;;;;5050429;28;20040;-74
2022/10/30 07:55:50;;;;;;;19.42;12.18;;;13.30;99.90;;;;;;5033531;28;20520;-74
2022/10/30 07:58:15;;;;;;;19.63;10.45;;;13.20;99.90;;;;;;5050213;28;20051;-74
2022/10/30 08:00:41;;;;;;;18.40;11.40;;;13.30;99.90;;;;;;5044282;28;20127;-74
2022/10/30 08:03:08;;;;;;;16.15;11.35;;;13.20;99.90;;;;;;5050621;28;20053;-74
2022/10/30 08:05:33;;;;;;;18.65;11.35;;;13.20;99.90;;;;;;5042725;28;20041;-74
2022/10/30 08:07:59;;;;;;;21.50;11.30;;;13.20;99.90;;;;;;5043200;28;20397;-74
2022/10/30 08:10:25;;;;;;;21.85;11.52;;;13.20;99.90;;;;;;5050784;28;20123;-74
2022/10/30 08:12:50;;;;;;;18.58;11.13;;;13.30;99.90;;;;;;5049426;28;20080;-74
2022/10/30 08:15:16;;;;;;;21.60;12.18;;;13.40;99.90;;;;;;5032828;28;20477;-74
2022/10/30 08:17:46;;;;;;;20.25;12.02;;;13.50;99.90;;;;;;5034368;28;20048;-74
2022/10/30 08:20:14;;;;;;;24.08;13.45;;;13.50;99.90;;;;;;5051959;28;20049;-74
2022/10/30 08:22:50;;;;;;;22.67;12.88;;;13.60;99.90;;;;;;5034223;28;20048;-74
2022/10/30 08:25:18;;;;;;;22.02;12.68;;;13.70;99.90;;;;;;5035601;28;20048;-74
2022/10/30 08:28:02;;;;;;;21.88;13.00;;;13.70;99.90;;;;;;5053057;28;20068;-74
2022/10/30 08:30:33;;;;;;;22.50;13.15;;;13.80;99.90;;;;;;5035561;28;20032;-74
2022/10/30 08:33:00;;;;;;;20.42;13.55;;;14.00;99.90;;;;;;5033518;28;20037;-74
2022/10/30 08:35:26;;;;;;;23.05;13.48;;;14.00;99.90;;;;;;5042439;28;20126;-74
2022/10/30 08:37:59;;;;;;;19.92;13.50;;;14.10;99.90;;;;;;5051442;28;20072;-74
2022/10/30 08:40:25;;;;;;;19.88;12.13;;;14.20;99.90;;;;;;5049352;28;20149;-74
2022/10/30 08:42:52;;;;;;;23.85;13.50;;;14.30;99.90;;;;;;5051842;28;20111;-74
2022/10/30 08:45:19;;;;;;;20.52;13.18;;;14.40;99.90;;;;;;5052312;28;20033;-75
2022/10/30 08:47:44;;;;;;;20.80;13.70;;;14.40;99.90;;;;;;5056260;28;20033;-74
2022/10/30 08:50:10;;;;;;;21.63;13.70;;;14.50;99.90;;;;;;5055767;28;20041;-74
2022/10/30 08:52:35;;;;;;;22.65;14.05;;;14.50;99.90;;;;;;5038875;28;20029;-74
2022/10/30 08:55:01;;;;;;;23.17;13.90;;;14.60;99.90;;;;;;5053404;28;20045;-74
2022/10/30 08:57:27;;;;;;;20.90;13.65;;;14.70;99.90;;;;;;5039252;28;20485;-75
2022/10/30 08:59:52;;;;;;;22.95;14.43;;;14.80;99.90;;;;;;5039112;28;20063;-74
2022/10/30 09:02:18;;;;;;;21.63;14.02;;;14.90;99.90;;;;;;5055577;28;20130;-74
2022/10/30 09:04:44;;;;;;;20.50;13.55;;;14.90;99.90;;;;;;5038510;28;20493;-75
2022/10/30 09:07:09;;;;;;;24.73;14.77;;;15.00;99.90;;;;;;5053493;28;20036;-75
2022/10/30 09:09:35;;;;;;;23.08;15.50;;;15.10;99.90;;;;;;5038339;28;20072;-75
2022/10/30 09:12:00;;;;;;;21.38;14.02;;;15.10;99.90;;;;;;5038116;28;20037;-74
2022/10/30 09:14:26;;;;;;;24.77;14.80;;;15.30;99.90;;;;;;5055456;28;20079;-74
2022/10/30 09:16:53;;;;;;;26.17;14.35;;;15.30;99.90;;;;;;5038874;28;20408;-74
2022/10/30 09:19:19;;;;;;;24.33;14.77;;;15.40;99.90;;;;;;5038040;28;20047;-75
2022/10/30 09:21:44;;;;;;;25.65;14.45;;;15.50;99.90;;;;;;5053873;28;20048;-75
2022/10/30 09:24:10;;;;;;;22.80;13.75;;;15.60;99.90;;;;;;5055154;28;20040;-74
2022/10/30 09:26:35;;;;;;;26.30;14.32;;;15.70;99.90;;;;;;5038564;28;20128;-75
2022/10/30 09:29:01;;;;;;;23.90;14.02;;;15.80;99.90;;;;;;5034715;28;20033;-74
2022/10/30 09:31:26;;;;;;;27.67;15.07;;;15.80;99.90;;;;;;5036885;28;20037;-75
2022/10/30 09:33:52;;;;;;;23.10;13.95;;;15.90;99.90;;;;;;5045560;28;20045;-74
2022/10/30 09:36:17;;;;;;;21.05;14.00;;;16.00;99.90;;;;;;5046491;28;20033;-74
2022/10/30 09:38:43;;;;;;;20.30;14.35;;;16.00;99.90;;;;;;5049611;28;20036;-74
2022/10/30 09:41:56;;;;;;;19.80;13.90;;;16.10;99.90;;;;;;5054059;28;20099;-74
2022/10/30 09:44:35;;;;;;;21.88;14.15;;;16.10;99.90;;;;;;5000434;28;20083;-74
2022/10/30 09:47:10;;;;;;;22.15;13.73;;;16.20;99.90;;;;;;5036179;28;20064;-74
2022/10/30 09:49:53;;;;;;;23.67;13.75;;;16.40;99.90;;;;;;5054808;28;20055;-75
2022/10/30 09:52:29;;;;;;;20.98;13.55;;;16.40;99.90;;;;;;5048978;28;20095;-75
2022/10/30 09:55:15;;;;;;;20.23;13.38;;;16.50;99.90;;;;;;5053224;28;20048;-74
2022/10/30 09:58:08;;;;;;;22.52;13.82;;;16.50;99.90;;;;;;5052543;28;20443;-74
2022/10/30 10:00:42;;;;;;;25.55;13.30;;;16.50;99.90;;;;;;5049542;28;20102;-75
2022/10/30 10:03:13;;;;;;;19.20;12.40;;;16.60;99.90;;;;;;5054007;28;20477;-75
2022/10/30 10:05:51;;;;;;;20.77;12.90;;;16.70;99.90;;;;;;5051754;28;20417;-74
2022/10/30 10:08:22;;;;;;;22.20;13.05;;;16.80;99.90;;;;;;5051903;28;20128;-74
2022/10/30 10:11:01;;;;;;;22.08;12.77;;;16.80;99.90;;;;;;5052421;28;20033;-75
2022/10/30 10:13:50;;;;;;;20.98;12.57;;;16.90;99.90;;;;;;5035730;28;20028;-74
2022/10/30 10:16:20;;;;;;;18.80;11.32;;;17.00;99.90;;;;;;5026101;28;20413;-75
2022/10/30 10:18:47;;;;;;;20.98;11.38;;;17.10;99.90;;;;;;5035269;28;20116;-75
2022/10/30 10:21:31;;;;;;;22.75;10.95;;;17.10;99.90;;;;;;5036394;28;20040;-75
2022/10/30 10:24:11;;;;;;;19.73;11.07;;;17.20;99.90;;;;;;5047020;28;20044;-75
2022/10/30 10:26:55;;;;;;;19.63;10.30;;;17.20;99.90;;;;;;5037490;28;20068;-75
2022/10/30 10:29:39;;;;;;;17.35;10.00;;;17.30;99.90;;;;;;5036630;28;20165;-74
2022/10/30 10:32:23;;;;;;;18.50;10.73;;;17.40;99.90;;;;;;5053574;28;20473;-75
2022/10/30 10:35:12;;;;;;;18.27;10.05;;;17.40;99.90;;;;;;5053278;28;20037;-74
2022/10/30 10:38:01;;;;;;;20.60;10.68;;;17.50;99.90;;;;;;5037367;28;20036;-75
2022/10/30 10:40:56;;;;;;;20.25;9.88;;;17.50;99.90;;;;;;5031028;28;20504;-75
2022/10/30 10:43:51;;;;;;;18.85;9.68;;;17.50;99.90;;;;;;5061766;28;20048;-75
2022/10/30 10:46:56;;;;;;;16.42;9.13;;;17.60;99.90;;;;;;5068724;28;20049;-75
2022/10/30 10:49:30;;;;;;;17.05;8.80;;;17.60;99.90;;;;;;5030898;28;20045;-75
2022/10/30 10:52:01;;;;;;;16.35;9.40;;;17.60;99.90;;;;;;5053690;28;20393;-75
2022/10/30 10:54:33;;;;;;;18.40;9.90;;;17.60;99.90;;;;;;5051853;28;20402;-75
2022/10/30 10:56:59;;;;;;;20.20;9.68;;;17.70;99.90;;;;;;5051922;28;20079;-74
2022/10/30 10:59:30;;;;;;;18.30;8.10;;;17.70;99.90;;;;;;5067174;28;20119;-75
2022/10/30 11:02:27;;;;;;;15.93;8.05;;;17.70;99.90;;;;;;5066029;28;20397;-75
2022/10/30 11:05:15;;;;;;;17.75;8.20;;;17.80;99.90;;;;;;5067630;28;20060;-81
2022/10/30 11:07:48;;;;;;;17.83;9.40;;;17.80;99.90;;;;;;5065268;28;20431;-76
2022/10/30 11:10:16;;;;;;;20.90;9.65;;;17.80;99.90;;;;;;5024195;28;20120;-75
2022/10/30 11:12:42;;;;;;;19.23;9.50;;;17.80;99.90;;;;;;5050273;28;20443;-75
2022/10/30 11:15:39;;;;;;;16.60;8.15;;;17.90;99.90;;;;;;5036092;28;20124;-75
2022/10/30 11:18:09;;;;;;;16.35;8.25;;;18.00;99.90;;;;;;5024233;28;20492;-75
2022/10/30 11:21:00;;;;;;;16.92;8.32;;;18.20;99.90;;;;;;5051771;28;20114;-74
2022/10/30 11:23:42;;;;;;;18.60;8.10;;;18.20;99.90;;;;;;5049508;28;20049;-74
2022/10/30 11:26:17;;;;;;;16.00;8.30;;;18.10;99.90;;;;;;5040466;28;20303;-74
2022/10/30 11:29:02;;;;;;;19.15;9.52;;;18.10;99.90;;;;;;5050864;28;20029;-74
2022/10/30 11:31:37;;;;;;;16.60;8.32;;;18.10;99.90;;;;;;5050848;28;20496;-74
2022/10/30 11:34:24;;;;;;;18.70;8.20;;;18.10;99.90;;;;;;5052098;28;20048;-75
2022/10/30 11:36:52;;;;;;;14.05;8.00;;;18.10;99.90;;;;;;5033481;28;20151;-75
2022/10/30 11:39:20;;;;;;;13.55;7.50;;;18.00;99.90;;;;;;5050029;28;20051;-75
2022/10/30 11:42:12;;;;;;;15.80;9.90;;;18.00;99.90;;;;;;5049244;28;20043;-74
2022/10/30 11:44:41;;;;;;;18.95;9.40;;;18.00;99.90;;;;;;5031121;28;20084;-74
2022/10/30 11:47:09;;;;;;;18.15;9.45;;;18.00;99.90;;;;;;5048527;28;20854;-74
2022/10/30 11:49:44;;;;;;;16.55;8.48;;;18.30;99.90;;;;;;5050719;28;20051;-74
2022/10/30 11:52:12;;;;;;;16.17;8.68;;;18.30;99.90;;;;;;5035182;28;20084;-74
2022/10/30 11:54:43;;;;;;;17.05;8.95;;;18.20;99.90;;;;;;5025432;28;20508;-74
2022/10/30 11:57:20;;;;;;;14.10;7.88;;;18.20;99.90;;;;;;5049469;28;20041;-75
2022/10/30 11:59:46;;;;;;;15.27;8.05;;;18.20;99.90;;;;;;5058627;28;20041;-74
2022/10/30 12:02:27;;;;;;;13.05;7.07;;;18.30;99.90;;;;;;5045302;28;20135;-74
2022/10/30 12:04:53;;;;;;;15.25;7.15;;;18.40;99.90;;;;;;5027240;28;20540;-75
2022/10/30 12:07:22;;;;;;;17.13;6.63;;;18.50;99.90;;;;;;5066308;28;20147;-75
2022/10/30 12:09:48;;;;;;;16.98;7.85;;;18.60;99.90;;;;;;5030164;28;20072;-74
2022/10/30 12:12:26;;;;;;;13.43;7.28;;;18.60;99.90;;;;;;5050603;28;20032;-75
2022/10/30 12:14:52;;;;;;;16.83;7.82;;;18.60;99.90;;;;;;5048748;28;20071;-75
2022/10/30 12:17:19;;;;;;;14.00;7.38;;;18.60;99.90;;;;;;5048013;28;20485;-75
2022/10/30 12:19:52;;;;;;;14.98;7.55;;;18.60;99.90;;;;;;5043953;28;20040;-75
2022/10/30 12:22:30;;;;;;;17.98;7.25;;;18.60;99.90;;;;;;5050987;28;20044;-75
2022/10/30 12:24:57;;;;;;;15.15;7.07;;;18.60;99.90;;;;;;5063930;28;20059;-75
2022/10/30 12:27:24;;;;;;;18.63;7.63;;;18.50;99.90;;;;;;5065215;28;20115;-75
2022/10/30 12:30:03;;;;;;;14.63;7.32;;;18.60;99.90;;;;;;5049944;28;20075;-75
2022/10/30 12:32:42;;;;;;;12.90;7.13;;;18.50;99.90;;;;;;5051208;28;20044;-75
2022/10/30 12:35:34;;;;;;;19.30;6.80;;;18.30;99.90;;;;;;5026508;28;20040;-75
2022/10/30 12:38:01;;;;;;;18.00;7.28;;;18.40;99.90;;;;;;5024748;28;20195;-73
2022/10/30 12:40:35;;;;;;;16.50;6.82;;;18.40;99.90;;;;;;5064772;28;20115;-73
2022/10/30 12:43:03;;;;;;;14.48;7.22;;;18.50;99.90;;;;;;5046922;28;20072;-73
2022/10/30 12:45:42;;;;;;;17.60;7.10;;;18.50;99.90;;;;;;5040805;28;20041;-73
2022/10/30 12:48:29;;;;;;;13.55;6.30;;;18.30;99.90;;;;;;5046527;28;20385;-73